createdAt,value
2018-04-24T00:01:25.080Z,14.00
2018-04-24T00:03:52.973Z,13.90
2018-04-24T00:06:21.089Z,14.00
2018-04-24T00:08:48.996Z,14.10
2018-04-24T00:11:16.897Z,14.10
2018-04-24T00:13:44.830Z,14.20
2018-04-24T00:16:12.742Z,14.10
2018-04-24T00:18:40.656Z,14.10
2018-04-24T00:21:08.584Z,14.00
2018-04-24T00:23:36.499Z,14.00
2018-04-24T00:26:04.426Z,14.00
2018-04-24T00:28:32.364Z,14.10
2018-04-24T00:31:00.315Z,14.10
2018-04-24T00:33:28.219Z,14.00
2018-04-24T00:38:25.023Z,13.80
2018-04-24T00:40:52.956Z,13.70
2018-04-24T00:43:21.612Z,13.60
2018-04-24T00:45:49.665Z,13.60
2018-04-24T00:48:17.834Z,13.70
2018-04-24T00:50:45.783Z,13.80
2018-04-24T00:53:25.526Z,13.80
2018-04-24T00:55:53.486Z,13.80
2018-04-24T00:58:21.384Z,13.80
2018-04-24T01:00:49.289Z,13.80
2018-04-24T01:03:17.273Z,13.80
2018-04-24T01:05:45.200Z,13.80
2018-04-24T01:08:13.121Z,13.80
2018-04-24T01:10:41.045Z,13.80
2018-04-24T01:13:08.954Z,13.80
2018-04-24T01:15:36.855Z,13.80
2018-04-24T01:18:04.790Z,13.80
2018-04-24T01:20:32.732Z,13.80
2018-04-24T01:23:01.316Z,13.70
2018-04-24T01:25:29.308Z,13.80
2018-04-24T01:27:57.484Z,13.80
2018-04-24T01:30:25.390Z,13.80
2018-04-24T01:32:53.328Z,13.90
2018-04-24T01:35:21.792Z,14.00
2018-04-24T01:37:49.701Z,14.10
2018-04-24T01:40:17.655Z,14.10
2018-04-24T01:42:45.577Z,14.10
2018-04-24T01:45:13.490Z,14.10
2018-04-24T01:47:41.435Z,14.00
2018-04-24T01:50:09.497Z,13.90
2018-04-24T01:55:06.419Z,13.90
2018-04-24T01:57:34.336Z,13.90
2018-04-24T02:00:02.246Z,13.90
2018-04-24T02:02:30.173Z,13.90
2018-04-24T02:04:58.080Z,13.90
2018-04-24T02:07:25.998Z,13.90
2018-04-24T02:09:54.066Z,13.90
2018-04-24T02:12:22.035Z,14.00
2018-04-24T02:14:49.947Z,13.80
2018-04-24T02:17:17.895Z,13.50
2018-04-24T02:19:45.841Z,13.40
2018-04-24T02:22:13.728Z,13.30
2018-04-24T02:24:41.666Z,13.10
2018-04-24T02:27:09.582Z,13.00
2018-04-24T02:29:37.505Z,13.20
2018-04-24T02:34:34.356Z,13.40
2018-04-24T02:39:31.161Z,13.10
2018-04-24T02:41:59.068Z,13.00
2018-04-24T02:44:26.994Z,13.00
2018-04-24T02:46:54.946Z,13.20
2018-04-24T02:49:22.854Z,13.00
2018-04-24T02:51:50.763Z,12.80
2018-04-24T02:54:18.688Z,12.80
2018-04-24T02:56:46.600Z,12.70
2018-04-24T02:59:14.509Z,12.70
2018-04-24T03:01:42.434Z,12.60
2018-04-24T03:04:10.341Z,12.60
2018-04-24T03:06:38.249Z,12.60
2018-04-24T03:09:06.196Z,13.10
2018-04-24T03:11:34.106Z,12.70
2018-04-24T03:14:02.041Z,12.60
2018-04-24T03:16:29.969Z,12.60
2018-04-24T03:18:57.889Z,12.40
2018-04-24T03:21:25.798Z,12.30
2018-04-24T03:23:53.787Z,12.90
2018-04-24T03:26:21.689Z,12.60
2018-04-24T03:28:49.606Z,12.50
2018-04-24T03:31:17.589Z,12.40
2018-04-24T03:33:45.507Z,12.90
2018-04-24T03:36:13.421Z,12.50
2018-04-24T03:38:41.356Z,12.90
2018-04-24T03:41:09.269Z,12.40
2018-04-24T03:43:37.173Z,12.30
2018-04-24T03:46:05.124Z,12.70
2018-04-24T03:48:33.089Z,12.30
2018-04-24T03:51:01.018Z,12.50
2018-04-24T03:53:28.953Z,12.20
2018-04-24T03:55:56.861Z,12.60
2018-04-24T03:58:24.797Z,12.30
2018-04-24T04:00:52.741Z,12.70
2018-04-24T04:03:20.664Z,12.30
2018-04-24T04:05:48.585Z,12.70
2018-04-24T04:08:16.509Z,12.30
2018-04-24T04:10:44.411Z,12.60
2018-04-24T04:13:12.313Z,12.30
2018-04-24T04:15:40.295Z,12.80
2018-04-24T04:18:19.949Z,12.50
2018-04-24T04:20:59.629Z,12.30
2018-04-24T04:23:39.463Z,12.80
2018-04-24T04:26:07.390Z,12.40
2018-04-24T04:28:35.305Z,12.40
2018-04-24T04:31:03.200Z,12.90
2018-04-24T04:33:31.141Z,12.60
2018-04-24T04:35:59.041Z,13.10
2018-04-24T04:38:26.954Z,12.80
2018-04-24T04:40:54.902Z,12.70
2018-04-24T04:43:22.815Z,13.10
2018-04-24T04:45:50.733Z,12.60
2018-04-24T04:48:18.676Z,13.00
2018-04-24T04:50:46.589Z,12.60
2018-04-24T04:53:14.500Z,13.00
2018-04-24T04:55:42.453Z,12.70
2018-04-24T04:58:10.357Z,12.60
2018-04-24T05:00:38.269Z,13.00
2018-04-24T05:03:06.213Z,12.60
2018-04-24T05:05:34.149Z,12.60
2018-04-24T05:08:02.073Z,13.00
2018-04-24T05:10:30.022Z,12.60
2018-04-24T05:12:57.964Z,12.50
2018-04-24T05:15:25.889Z,13.00
2018-04-24T05:17:53.826Z,12.80
2018-04-24T05:20:21.760Z,12.60
2018-04-24T05:22:49.677Z,13.00
2018-04-24T05:25:17.616Z,12.70
2018-04-24T05:27:45.524Z,13.10
2018-04-24T05:30:13.445Z,12.70
2018-04-24T05:32:41.388Z,12.60
2018-04-24T05:37:41.281Z,12.60
2018-04-24T05:40:09.220Z,13.00
2018-04-24T05:42:37.135Z,12.70
2018-04-24T05:45:05.064Z,12.50
2018-04-24T05:47:33.014Z,12.90
2018-04-24T05:50:01.007Z,12.60
2018-04-24T05:52:33.517Z,13.00
2018-04-24T05:55:05.463Z,12.60
2018-04-24T05:57:34.412Z,13.10
2018-04-24T06:00:02.382Z,12.70
2018-04-24T06:02:30.289Z,12.90
2018-04-24T06:04:58.221Z,12.80
2018-04-24T06:07:26.147Z,13.10
2018-04-24T06:09:54.065Z,12.80
2018-04-24T06:12:22.006Z,13.30
2018-04-24T06:14:49.908Z,13.10
2018-04-24T06:17:17.826Z,12.90
2018-04-24T06:19:45.779Z,12.80
2018-04-24T06:22:13.703Z,13.10
2018-04-24T06:24:41.615Z,13.00
2018-04-24T06:27:09.565Z,13.10
2018-04-24T06:29:37.481Z,12.90
2018-04-24T06:32:05.400Z,12.90
2018-04-24T06:34:33.335Z,13.30
2018-04-24T06:37:01.235Z,12.80
2018-04-24T06:39:29.144Z,13.30
2018-04-24T06:41:57.091Z,12.90
2018-04-24T06:44:24.998Z,12.70
2018-04-24T06:46:52.915Z,13.20
2018-04-24T06:49:20.857Z,12.90
2018-04-24T06:51:48.767Z,12.80
2018-04-24T06:54:16.684Z,13.00
2018-04-24T06:56:44.613Z,12.60
2018-04-24T06:59:12.534Z,13.00
2018-04-24T07:01:40.454Z,12.60
2018-04-24T07:04:08.385Z,12.90
2018-04-24T07:06:36.310Z,12.60
2018-04-24T07:09:04.217Z,13.10
2018-04-24T07:11:32.176Z,12.90
2018-04-24T07:14:00.090Z,12.80
2018-04-24T07:16:27.992Z,13.30
2018-04-24T07:18:55.913Z,12.90
2018-04-24T07:21:23.824Z,12.80
2018-04-24T07:23:51.734Z,13.20
2018-04-24T07:26:19.662Z,12.90
2018-04-24T07:28:47.592Z,13.40
2018-04-24T07:31:15.514Z,13.00
2018-04-24T07:33:43.478Z,12.80
2018-04-24T07:36:11.390Z,13.20
2018-04-24T07:38:39.330Z,12.70
2018-04-24T07:41:07.352Z,13.10
2018-04-24T07:43:35.185Z,12.80
2018-04-24T07:46:03.201Z,13.30
2018-04-24T07:48:31.153Z,12.90
2018-04-24T07:50:59.066Z,12.90
2018-04-24T07:53:26.978Z,13.20
2018-04-24T07:55:54.937Z,12.80
2018-04-24T07:58:22.883Z,13.20
2018-04-24T08:00:50.790Z,12.80
2018-04-24T08:03:20.761Z,13.20
2018-04-24T08:05:48.693Z,12.80
2018-04-24T08:08:16.683Z,13.30
2018-04-24T08:10:44.634Z,12.90
2018-04-24T08:13:12.544Z,13.40
2018-04-24T08:15:40.454Z,13.00
2018-04-24T08:18:08.400Z,13.00
2018-04-24T08:20:36.366Z,13.50
2018-04-24T08:23:04.373Z,13.20
2018-04-24T08:25:32.409Z,13.20
2018-04-24T08:28:00.321Z,13.20
2018-04-24T08:30:28.243Z,13.20
2018-04-24T08:32:56.216Z,13.20
2018-04-24T08:35:24.155Z,13.20
2018-04-24T08:37:52.070Z,13.80
2018-04-24T08:40:21.345Z,13.40
2018-04-24T08:42:49.294Z,13.20
2018-04-24T08:45:17.434Z,13.20
2018-04-24T08:47:45.400Z,13.80
2018-04-24T08:50:13.315Z,13.60
2018-04-24T08:52:41.222Z,13.40
2018-04-24T08:55:09.157Z,13.30
2018-04-24T08:57:37.076Z,13.30
2018-04-24T09:00:05.011Z,13.30
2018-04-24T09:02:32.944Z,13.20
2018-04-24T09:05:00.860Z,13.60
2018-04-24T09:07:28.778Z,13.30
2018-04-24T09:09:56.708Z,13.10
2018-04-24T09:12:24.641Z,13.50
2018-04-24T09:14:52.561Z,13.30
2018-04-24T09:17:20.513Z,13.30
2018-04-24T09:19:48.449Z,13.30
2018-04-24T09:22:16.369Z,13.30
2018-04-24T09:24:44.310Z,13.40
2018-04-24T09:27:12.310Z,13.50
2018-04-24T09:29:40.157Z,13.40
2018-04-24T09:32:08.107Z,13.30
2018-04-24T09:34:36.050Z,13.30
2018-04-24T09:37:03.966Z,13.30
2018-04-24T09:39:31.943Z,13.30
2018-04-24T09:41:59.884Z,13.40
2018-04-24T09:46:56.718Z,13.50
2018-04-24T09:49:24.645Z,13.70
2018-04-24T09:51:52.590Z,13.80
2018-04-24T09:54:21.014Z,13.90
2018-04-24T09:56:49.037Z,13.90
2018-04-24T09:59:16.997Z,14.00
2018-04-24T10:01:45.496Z,13.80
2018-04-24T10:04:13.430Z,13.60
2018-04-24T10:06:41.360Z,13.60
2018-04-24T10:09:09.309Z,13.70
2018-04-24T10:11:37.246Z,13.60
2018-04-24T10:14:05.168Z,13.50
2018-04-24T10:16:33.134Z,13.60
2018-04-24T10:21:29.958Z,13.70
2018-04-24T10:23:57.913Z,13.80
2018-04-24T10:26:25.915Z,14.00
2018-04-24T10:28:53.901Z,14.00
2018-04-24T10:33:50.863Z,14.10
2018-04-24T10:36:18.830Z,14.00
2018-04-24T10:38:46.772Z,13.90
2018-04-24T10:41:14.685Z,13.80
2018-04-24T10:43:42.614Z,13.80
2018-04-24T10:46:10.571Z,13.90
2018-04-24T10:48:38.493Z,14.00
2018-04-24T10:51:06.406Z,14.00
2018-04-24T10:53:34.352Z,14.10
2018-04-24T10:56:02.318Z,14.10
2018-04-24T10:58:30.262Z,14.10
2018-04-24T11:00:58.222Z,14.10
2018-04-24T11:03:26.140Z,14.20
2018-04-24T11:05:54.064Z,14.20
2018-04-24T11:08:22.105Z,14.20
2018-04-24T11:10:50.050Z,14.30
2018-04-24T11:13:18.882Z,14.50
2018-04-24T11:15:46.832Z,14.60
2018-04-24T11:18:14.808Z,14.60
2018-04-24T11:20:42.740Z,14.70
2018-04-24T11:23:10.698Z,14.70
2018-04-24T11:25:38.614Z,14.60
2018-04-24T11:28:06.525Z,14.70
2018-04-24T11:30:34.476Z,14.60
2018-04-24T11:33:02.395Z,14.50
2018-04-24T11:35:30.351Z,14.50
2018-04-24T11:38:05.987Z,14.60
2018-04-24T11:40:39.910Z,14.70
2018-04-24T11:43:08.003Z,14.60
2018-04-24T11:45:35.974Z,14.40
2018-04-24T11:48:03.924Z,14.40
2018-04-24T11:50:31.946Z,14.40
2018-04-24T11:52:59.887Z,14.40
2018-04-24T11:55:27.829Z,14.40
2018-04-24T11:57:55.802Z,14.40
2018-04-24T12:00:23.750Z,14.30
2018-04-24T12:06:05.663Z,14.60
2018-04-24T12:08:33.617Z,14.70
2018-04-24T12:11:01.635Z,14.80
2018-04-24T12:13:29.571Z,14.50
2018-04-24T12:15:57.544Z,14.40
2018-04-24T12:18:25.492Z,14.40
2018-04-24T12:20:53.418Z,14.50
2018-04-24T12:23:21.370Z,14.50
2018-04-24T12:25:49.323Z,14.60
2018-04-24T12:28:17.296Z,14.60
2018-04-24T12:30:45.267Z,14.50
2018-04-24T12:33:13.191Z,14.70
2018-04-24T12:35:41.140Z,14.70
2018-04-24T12:38:09.105Z,14.80
2018-04-24T12:40:37.032Z,14.80
2018-04-24T12:43:04.958Z,14.70
2018-04-24T12:45:32.919Z,14.80
2018-04-24T12:48:00.854Z,14.80
2018-04-24T12:50:28.806Z,14.90
2018-04-24T12:52:56.756Z,14.90
2018-04-24T12:55:25.053Z,14.80
2018-04-24T12:57:53.048Z,14.80
2018-04-24T13:00:20.965Z,14.80
2018-04-24T13:02:48.891Z,14.90
2018-04-24T13:07:45.721Z,14.90
2018-04-24T13:10:13.702Z,14.90
2018-04-24T13:12:41.775Z,14.90
2018-04-24T13:20:52.642Z,14.90
2018-04-24T13:23:20.580Z,14.90
2018-04-24T13:25:48.570Z,14.90
2018-04-24T13:28:16.496Z,14.90
2018-04-24T13:30:50.345Z,14.90
2018-04-24T13:33:18.391Z,14.90
2018-04-24T13:35:46.333Z,14.90
2018-04-24T13:38:14.276Z,14.90
2018-04-24T13:40:42.244Z,14.80
2018-04-24T13:43:10.261Z,14.80
2018-04-24T13:45:38.202Z,14.80
2018-04-24T13:48:06.116Z,14.90
2018-04-24T13:50:34.108Z,14.90
2018-04-24T13:53:02.084Z,14.70
2018-04-24T14:01:10.274Z,14.60
2018-04-24T14:03:38.201Z,14.50
2018-04-24T14:06:06.121Z,14.60
2018-04-24T14:08:34.071Z,14.60
2018-04-24T14:11:02.012Z,14.40
2018-04-24T14:13:34.659Z,14.30
2018-04-24T14:16:03.135Z,14.30
2018-04-24T14:18:31.062Z,14.40
2018-04-24T14:23:27.890Z,14.50
2018-04-24T14:25:55.805Z,14.50
2018-04-24T14:28:23.746Z,14.60
2018-04-24T14:30:51.715Z,14.60
2018-04-24T14:33:19.643Z,14.70
2018-04-24T14:35:47.592Z,14.70
2018-04-24T14:38:15.536Z,14.70
2018-04-24T14:40:43.495Z,14.70
2018-04-24T14:43:11.484Z,14.80
2018-04-24T14:45:39.484Z,14.80
2018-04-24T14:48:07.439Z,14.90
2018-04-24T14:50:35.389Z,15.10
2018-04-24T14:53:03.460Z,15.30
2018-04-24T14:55:31.771Z,15.40
2018-04-24T14:57:59.774Z,15.50
2018-04-24T15:00:27.783Z,15.60
2018-04-24T15:02:55.763Z,15.80
2018-04-24T15:05:23.706Z,16.00
2018-04-24T15:07:51.772Z,16.20
2018-04-24T15:10:19.790Z,16.40
2018-04-24T15:12:47.996Z,16.50
2018-04-24T15:15:16.019Z,16.50
2018-04-24T15:17:43.981Z,16.40
2018-04-24T15:20:12.784Z,16.40
2018-04-24T15:22:40.736Z,16.50
2018-04-24T15:25:08.664Z,16.40
2018-04-24T15:27:36.609Z,16.30
2018-04-24T15:30:04.571Z,16.40
2018-04-24T15:32:32.505Z,16.20
2018-04-24T15:35:00.507Z,16.10
2018-04-24T15:37:28.407Z,16.00
2018-04-24T15:39:56.331Z,15.70
2018-04-24T15:42:24.342Z,15.70
2018-04-24T15:44:52.398Z,15.70
2018-04-24T15:47:20.326Z,15.70
2018-04-24T15:49:48.326Z,15.70
2018-04-24T15:52:38.417Z,15.70
2018-04-24T15:57:45.328Z,15.90
2018-04-24T16:00:13.893Z,15.90
2018-04-24T16:02:41.826Z,15.90
2018-04-24T16:05:09.764Z,15.80
2018-04-24T16:07:58.404Z,15.80
2018-04-24T16:10:44.843Z,15.80
2018-04-24T16:26:03.941Z,15.80
2018-04-24T16:28:31.864Z,15.70
2018-04-24T16:30:59.790Z,15.70
2018-04-24T16:33:27.743Z,15.60
2018-04-24T16:35:55.751Z,15.70
2018-04-24T16:38:24.022Z,15.70
2018-04-24T16:40:54.105Z,15.60
2018-04-24T16:43:24.082Z,15.50
2018-04-24T16:46:06.165Z,15.50
2018-04-24T16:48:36.430Z,15.40
2018-04-24T16:51:04.457Z,15.40
2018-04-24T16:53:32.385Z,15.30
2018-04-24T16:56:00.342Z,15.20
2018-04-24T16:58:28.301Z,15.20
2018-04-24T17:00:56.223Z,15.30
2018-04-24T17:03:24.331Z,15.40
2018-04-24T17:05:52.375Z,15.30
2018-04-24T17:08:20.314Z,15.20
2018-04-24T17:13:17.153Z,15.20
2018-04-24T17:15:45.675Z,15.20
2018-04-24T17:18:13.601Z,15.20
2018-04-24T17:20:41.578Z,15.20
2018-04-24T17:23:09.629Z,15.10
2018-04-24T17:25:37.609Z,15.10
2018-04-24T17:28:05.549Z,15.00
2018-04-24T17:30:33.468Z,15.00
2018-04-24T17:33:01.413Z,15.10
2018-04-24T17:35:29.472Z,15.10
2018-04-24T17:37:57.313Z,15.00
2018-04-24T17:40:25.274Z,15.00
2018-04-24T17:42:54.413Z,15.00
2018-04-24T17:45:22.354Z,14.90
2018-04-24T17:47:50.282Z,14.90
2018-04-24T17:50:18.213Z,15.00
2018-04-24T17:52:46.139Z,15.00
2018-04-24T17:55:14.098Z,14.90
2018-04-24T17:57:42.053Z,14.90
2018-04-24T18:02:38.895Z,14.90
2018-04-24T18:05:06.870Z,14.90
2018-04-24T18:07:34.835Z,14.90
2018-04-24T18:10:02.778Z,14.90
2018-04-24T18:12:30.738Z,14.90
2018-04-24T18:14:58.699Z,14.80
2018-04-24T18:17:26.640Z,14.80
2018-04-24T18:19:54.608Z,14.80
2018-04-24T18:22:22.604Z,14.80
2018-04-24T18:24:57.134Z,14.80
2018-04-24T18:27:25.081Z,14.80
2018-04-24T18:29:53.087Z,14.70
2018-04-24T18:32:21.062Z,14.70
2018-04-24T18:34:49.040Z,14.60
2018-04-24T18:37:31.010Z,14.60
2018-04-24T18:40:06.802Z,14.60
2018-04-24T18:42:34.958Z,14.60
2018-04-24T18:45:02.966Z,14.70
2018-04-24T18:47:30.992Z,14.70
2018-04-24T18:49:59.013Z,14.60
2018-04-24T18:52:27.916Z,14.70
2018-04-24T18:54:56.059Z,14.70
2018-04-24T18:57:26.686Z,14.70
2018-04-24T18:59:55.486Z,14.70
2018-04-24T19:02:25.472Z,14.60
2018-04-24T19:04:55.453Z,14.70
2018-04-24T19:07:23.468Z,14.70
2018-04-24T19:09:52.060Z,14.70
2018-04-24T19:12:20.070Z,14.70
2018-04-24T19:14:48.131Z,14.70
2018-04-24T19:17:18.520Z,14.70
2018-04-24T19:19:49.216Z,14.70
2018-04-24T19:22:17.947Z,14.70
2018-04-24T19:24:51.737Z,14.70
2018-04-24T19:27:21.699Z,14.70
2018-04-24T19:29:49.723Z,14.70
2018-04-24T19:32:23.890Z,14.70
2018-04-24T19:34:52.355Z,14.60
2018-04-24T19:37:20.325Z,14.60
2018-04-24T19:39:54.206Z,14.60
2018-04-24T19:42:24.793Z,14.50
2018-04-24T19:44:56.523Z,14.50
2018-04-24T19:47:26.124Z,14.50
2018-04-24T19:49:59.874Z,14.50
2018-04-24T19:52:29.715Z,14.50
2018-04-24T19:55:05.949Z,14.50
2018-04-24T19:57:34.070Z,14.50
2018-04-24T20:00:04.703Z,14.50
2018-04-24T20:02:42.389Z,14.50
2018-04-24T20:05:36.858Z,14.50
2018-04-24T20:08:06.290Z,14.50
2018-04-24T20:10:35.207Z,14.50
2018-04-24T20:13:04.871Z,14.50
2018-04-24T20:18:05.899Z,14.50
2018-04-24T20:20:36.387Z,14.50
2018-04-24T20:36:00.343Z,14.40
2018-04-24T20:38:28.257Z,14.40
2018-04-24T20:40:56.805Z,14.40
2018-04-24T20:43:28.567Z,14.40
2018-04-24T20:45:56.481Z,14.50
2018-04-24T20:48:24.415Z,14.50
2018-04-24T20:50:52.362Z,14.60
2018-04-24T20:53:20.465Z,14.50
2018-04-24T20:55:48.277Z,14.40
2018-04-24T20:58:16.220Z,14.40
2018-04-24T21:00:44.222Z,14.40
2018-04-24T21:03:12.109Z,14.40
2018-04-24T21:05:40.034Z,14.40
2018-04-24T21:08:08.082Z,14.40
2018-04-24T21:10:36.013Z,14.40
2018-04-24T21:13:03.951Z,14.40
2018-04-24T21:15:31.880Z,14.30
2018-04-24T21:18:00.789Z,14.30
2018-04-24T21:20:28.865Z,14.30
2018-04-24T21:22:56.835Z,14.30
2018-04-24T21:25:24.779Z,14.30
2018-04-24T21:27:52.756Z,14.40
2018-04-24T21:30:20.751Z,14.40
2018-04-24T21:32:48.633Z,14.40
2018-04-24T21:35:16.605Z,14.40
2018-04-24T21:37:44.533Z,14.30
2018-04-24T21:40:12.467Z,14.30
2018-04-24T21:42:40.427Z,14.30
2018-04-24T21:45:08.349Z,14.30
2018-04-24T21:47:36.315Z,14.30
2018-04-24T21:50:04.291Z,14.30
2018-04-24T21:52:32.280Z,14.30
2018-04-24T21:55:00.237Z,14.30
2018-04-24T21:57:28.217Z,14.30
2018-04-24T21:59:56.143Z,14.30
2018-04-24T22:02:24.070Z,14.30
2018-04-24T22:04:52.234Z,14.30
2018-04-24T22:07:20.154Z,14.30
2018-04-24T22:09:48.102Z,14.30
2018-04-24T22:12:16.051Z,14.40
2018-04-24T22:14:43.975Z,14.40
2018-04-24T22:17:11.898Z,14.30
2018-04-24T22:19:39.850Z,14.30
2018-04-24T22:22:07.866Z,14.30
2018-04-24T22:24:35.801Z,14.30
2018-04-24T22:27:03.805Z,14.30
2018-04-24T22:29:31.887Z,14.30
2018-04-24T22:31:59.810Z,14.30
2018-04-24T22:34:27.786Z,14.30
2018-04-24T22:36:55.729Z,14.30
2018-04-24T22:39:23.785Z,14.30
2018-04-24T22:41:51.749Z,14.30
2018-04-24T22:44:19.694Z,14.30
2018-04-24T22:46:47.632Z,14.30
2018-04-24T22:49:15.595Z,14.30
2018-04-24T22:51:43.512Z,14.30
2018-04-24T22:54:11.445Z,14.30
2018-04-24T22:56:39.391Z,14.30
2018-04-24T22:59:07.317Z,14.30
2018-04-24T23:01:35.242Z,14.30
2018-04-24T23:04:03.341Z,14.30
2018-04-24T23:06:37.599Z,14.30
2018-04-24T23:14:20.997Z,14.30
2018-04-24T23:17:00.699Z,14.30
2018-04-24T23:19:40.564Z,14.20
2018-04-24T23:22:08.657Z,14.20
2018-04-24T23:24:36.589Z,14.30
2018-04-24T23:27:07.120Z,14.30
2018-04-24T23:29:35.036Z,14.30
2018-04-24T23:32:04.276Z,14.30
2018-04-24T23:34:32.851Z,14.20
2018-04-24T23:39:30.182Z,14.10
2018-04-24T23:41:58.118Z,14.10
2018-04-24T23:44:26.130Z,14.20
2018-04-24T23:46:54.044Z,14.30
2018-04-24T23:49:22.050Z,14.30
2018-04-24T23:51:49.964Z,14.30
2018-04-24T23:54:17.907Z,14.30
2018-04-24T23:56:45.849Z,14.30
2018-04-24T23:59:13.810Z,14.30
